Coronel Enrique Soto Cano Air Base


Codes: MHSC/XPL
Name: Coronel Enrique Soto Cano Air Base
City: Comayagua
Country: Honduras
Elevation: 2061 ft.

Photos at Coronel Enrique Soto Cano Air Base


   Photos courtesy of SpottingLog. You can add your own sightings and photos by signing up for a free trial today.



No photos found.

Weather at Coronel Enrique Soto Cano Air Base


Time (UTC)DescriptionTempratureWindCloud coverageVisibilityPressureHumidity
25-Jun-2024 12:00Overcast Clouds21°C2 mph, E99%10000m1015hPa95%
25-Jun-2024 15:00Overcast Clouds23°C4 mph, NE99%10000m1015hPa89%
25-Jun-2024 18:00Overcast Clouds27°C4 mph, NE96%10000m1014hPa71%
25-Jun-2024 21:00Light Rain30°C2 mph, NE99%10000m1012hPa59%
26-Jun-2024 00:00Moderate Rain25°C4 mph, E94%5539m1014hPa85%
26-Jun-2024 03:00Moderate Rain23°C2 mph, SE100%10000m1016hPa91%
26-Jun-2024 06:00Light Rain23°C2 mph, NE100%10000m1016hPa93%
26-Jun-2024 09:00Light Rain22°C0 mph, E100%10000m1014hPa94%
26-Jun-2024 12:00Light Rain22°C0 mph, NE99%10000m1015hPa94%
26-Jun-2024 15:00Light Rain27°C2 mph, NE88%10000m1015hPa78%
26-Jun-2024 18:00Light Rain29°C4 mph, NE54%10000m1013hPa71%
26-Jun-2024 21:00Moderate Rain28°C4 mph, NE33%5007m1011hPa75%
27-Jun-2024 00:00Moderate Rain24°C4 mph, E64%10000m1011hPa89%
27-Jun-2024 03:00Light Rain23°C2 mph, SE91%10000m1014hPa92%
27-Jun-2024 06:00Overcast Clouds22°C2 mph, E95%10000m1014hPa94%
27-Jun-2024 09:00Overcast Clouds21°C2 mph, E100%10000m1013hPa95%
27-Jun-2024 12:00Overcast Clouds21°C0 mph, E99%10000m1013hPa94%
27-Jun-2024 15:00Broken Clouds27°C2 mph, NE73%10000m1013hPa68%
27-Jun-2024 18:00Overcast Clouds31°C4 mph, NE87%10000m1011hPa50%
27-Jun-2024 21:00Overcast Clouds31°C4 mph, NE89%10000m1008hPa51%
28-Jun-2024 00:00Light Rain24°C2 mph, E92%10000m1010hPa86%
28-Jun-2024 03:00Moderate Rain23°C2 mph, E99%10000m1012hPa93%
28-Jun-2024 06:00Light Rain23°C2 mph, N99%6183m1011hPa94%
28-Jun-2024 09:00Light Rain22°C4 mph, NE99%10000m1010hPa96%
28-Jun-2024 12:00Light Rain22°C2 mph, SE100%5959m1011hPa97%
28-Jun-2024 15:00Moderate Rain21°C2 mph, S100%10000m1012hPa99%
28-Jun-2024 18:00Light Rain26°C2 mph, S100%10000m1011hPa77%
28-Jun-2024 21:00Light Rain25°C4 mph, S100%6170m1009hPa88%
29-Jun-2024 00:00Light Rain23°C7 mph, S100%10000m1011hPa96%
29-Jun-2024 03:00Light Rain22°C4 mph, S100%10000m1013hPa98%
29-Jun-2024 06:00Light Rain22°C4 mph, S100%2973m1013hPa99%
29-Jun-2024 09:00Light Rain22°C4 mph, N100%0m1012hPa99%
29-Jun-2024 12:00Light Rain22°C4 mph, S100%3895m1014hPa98%
29-Jun-2024 15:00Light Rain22°C4 mph, S100%10000m1015hPa96%
29-Jun-2024 18:00Light Rain22°C4 mph, S99%10000m1015hPa96%
29-Jun-2024 21:00Light Rain22°C4 mph, S100%10000m1013hPa97%
30-Jun-2024 00:00Light Rain22°C4 mph, S100%10000m1015hPa97%
30-Jun-2024 03:00Overcast Clouds22°C4 mph, S100%10000m1016hPa97%
30-Jun-2024 06:00Overcast Clouds22°C4 mph, S100%10000m1016hPa97%
30-Jun-2024 09:00Overcast Clouds21°C4 mph, S99%10000m1015hPa97%